Carmi, Illinois
Current Conditions -  °F | °C
As of 2:55 PM on Thursday 18 Dec 2014 (Local Time) from KCUL Reporting Station
Overcast Overcast  
Wind Chill: 35°   Ceiling: 4500
Heat Index: 35°   Visibility: 7mi
Dew Point: 28°   Wind: 0mph
Humidity: 77%   Direction: NA
Pressure: 30.24"   Gusts: NA
Location:  38.09°N, 88.17°W
Report Text: KCUL 182055Z AUTO 00000KT 7SM BKN045 OVC075 02/M02 A3024 RMK AO2 T00161020
Loading
Personal Weather Stations






























Interactive Weather Map New forecast layout! Learn more

10-Day Weather Forecast

Advertisements
Track Severe Weather on mobile